Delta Billie — WDE8059 — position and weather

sailwx.info

Track history (hours):
 
Tides and Currents Weather Stations Pressure Air Temp Water Temp Dewpoint Dewpoint Depression Visibility Wind Speed Wind Dir Waves Ship Positions

Delta Billie

Owner: Baydelta Maritime, San Francicso, CA. More information available from US FCC via Universal Licensing System and Coast Guard Vessel Documentation Center.

Last reported at 2016-Aug-29 12:33 UTC. Time now 2016-Aug-29 13:03 UTC.
Position N 37°48' W 122°22'.

Length 30 m; draft 5.5 m.

Type: Towing. MMSI: 367401030.

Date/timePositionNaut miles runAvg speedWind from/ knotsBaromVisibWave heightAir tempDewpointWater temp
2016-Aug-29 12:33N 37°48' W 122°22'2 1.6
2016-Aug-29 11:33N 37°49' W 122°20'2 2.0
2016-Aug-29 10:33N 37°48' W 122°22'2 1.5
2016-Aug-29 09:33N 37°48' W 122°24'0 0.0
2016-Aug-29 08:33N 37°48' W 122°24'0 0.0
2016-Aug-29 07:33N 37°48' W 122°24'0 0.0
2016-Aug-29 06:33N 37°48' W 122°24'0 0.0
2016-Aug-29 05:33N 37°48' W 122°24'0 0.0
2016-Aug-29 04:33N 37°48' W 122°24'0 0.0
2016-Aug-29 03:33N 37°48' W 122°24'0 0.0
2016-Aug-29 02:33N 37°48' W 122°24'2 2.3
2016-Aug-29 01:33N 37°50' W 122°24'5 4.6
2016-Aug-29 00:33N 37°55' W 122°22'2 1.6
2016-Aug-28 23:33N 37°54' W 122°24'3 2.9
2016-Aug-28 22:33N 37°57' W 122°26'11 9.9
2016-Aug-28 21:27N 38°04' W 122°15'2 0.1
2016-Aug-27 17:18N 38°04' W 122°13'911.1
2016-Aug-27 16:31N 38°01' W 122°23'1010.5
2016-Aug-27 15:33N 37°51' W 122°27'4 3.5
2016-Aug-27 14:33N 37°49' W 122°30'7 7.3
2016-Aug-27 13:34N 37°47' W 122°21'1 0.8
2016-Aug-27 12:33N 37°47' W 122°22'2 1.8
2016-Aug-27 11:33N 37°48' W 122°24'0 0.0
2016-Aug-27 10:33N 37°48' W 122°24'0 0.0
2016-Aug-27 09:33N 37°48' W 122°24'0 0.0
2016-Aug-27 08:33N 37°48' W 122°24'0 0.0
2016-Aug-27 07:33N 37°48' W 122°24'0 0.0
2016-Aug-27 06:33N 37°48' W 122°24'2 1.2
2016-Aug-27 04:33N 37°47' W 122°21'10 9.5
2016-Aug-27 03:33N 37°56' W 122°27'9 8.6
2016-Aug-27 02:30N 38°03' W 122°20'7 0.6
2016-Aug-26 15:31N 38°03' W 122°12'3 1.8
2016-Aug-26 14:09N 38°03' W 122°15'0 0.0
2016-Aug-26 13:28N 38°03' W 122°15'0 0.2
2016-Aug-26 12:28N 38°04' W 122°14'5 1.7
2016-Aug-26 09:32N 38°02' W 122°08'2 0.4
2016-Aug-26 04:21N 38°03' W 122°06'2 0.2
2016-Aug-25 18:28N 38°02' W 122°08'1 1.3
2016-Aug-25 17:28N 38°02' W 122°09'1 0.5
2016-Aug-25 15:23N 38°02' W 122°08'0 0.0
2016-Aug-25 14:23N 38°02' W 122°08'2 2.1
2016-Aug-25 13:34N 38°03' W 122°06'3 1.3
2016-Aug-25 11:33N 38°02' W 122°09'1 0.2
2016-Aug-25 07:28N 38°02' W 122°08'2 0.4
2016-Aug-25 03:12N 38°03' W 122°10'710.6
2016-Aug-25 02:33N 38°03' W 122°19'9 8.9
2016-Aug-25 01:33N 37°56' W 122°26'0 0.4
2016-Aug-25 00:33N 37°55' W 122°25'8 8.1
2016-Aug-24 23:33N 37°49' W 122°19'3 3.1
2016-Aug-24 22:33N 37°46' W 122°21'5 5.4
2016-Aug-24 21:33N 37°49' W 122°26'2 2.4
2016-Aug-24 20:33N 37°49' W 122°29'4 4.1
2016-Aug-24 19:33N 37°48' W 122°24'0 0.0
2016-Aug-24 18:34N 37°48' W 122°24'0 0.0
2016-Aug-24 17:33N 37°48' W 122°24'0 0.0
2016-Aug-24 16:33N 37°48' W 122°24'0 0.0
2016-Aug-24 15:33N 37°48' W 122°24'0 0.0
2016-Aug-24 14:33N 37°48' W 122°24'3 3.2
2016-Aug-24 13:33N 37°51' W 122°24'4 4.3
2016-Aug-24 12:33N 37°56' W 122°25'2 2.3
2016-Aug-24 11:33N 37°53' W 122°25'7 7.5
2016-Aug-24 10:33N 38°01' W 122°24'11 9.0
2016-Aug-24 09:22N 38°03' W 122°10'2 0.3
2016-Aug-24 03:33N 38°02' W 122°08'8 1.0
2016-Aug-23 19:33N 38°03' W 122°19'9 9.0
2016-Aug-23 18:33N 37°56' W 122°26'3 3.5
2016-Aug-23 17:33N 37°55' W 122°22'0 0.1
2016-Aug-23 16:33N 37°55' W 122°22'0 0.0
2016-Aug-23 15:33N 37°55' W 122°22'0 0.0
2016-Aug-23 14:33N 37°55' W 122°22'0 0.0
2016-Aug-23 13:33N 37°55' W 122°22'0 0.0
2016-Aug-23 12:33N 37°55' W 122°22'0 0.0
2016-Aug-23 11:33N 37°55' W 122°22'8 7.9
2016-Aug-23 10:34N 37°49' W 122°29'1 0.8
2016-Aug-23 09:33N 37°49' W 122°28'6 5.8
2016-Aug-23 08:33N 37°47' W 122°21'2 2.3
2016-Aug-23 07:34N 37°48' W 122°24'4 4.0
2016-Aug-23 06:33N 37°49' W 122°29'0 0.4
2016-Aug-23 05:33N 37°49' W 122°29'6 6.2
2016-Aug-23 04:33N 37°55' W 122°25'7 7.5
2016-Aug-23 03:33N 38°02' W 122°22'9 2.9
2016-Aug-23 00:32N 38°03' W 122°11'3 1.7
2016-Aug-22 22:33N 38°03' W 122°15'0 0.0
2016-Aug-22 21:26N 38°03' W 122°15'3 3.5
2016-Aug-22 20:32N 38°03' W 122°19'9 9.0
2016-Aug-22 19:33N 37°56' W 122°26'1 0.9
2016-Aug-22 18:33N 37°55' W 122°25'3 3.1
2016-Aug-22 17:33N 37°52' W 122°25'4 4.5
2016-Aug-22 16:33N 37°57' W 122°26'9 8.8
2016-Aug-22 15:33N 38°03' W 122°18'8 2.6
2016-Aug-22 12:33N 38°02' W 122°08'0 0.0
2016-Aug-22 11:31N 38°02' W 122°08'0 0.0
2016-Aug-22 10:27N 38°02' W 122°08'0 0.2
2016-Aug-22 09:10N 38°02' W 122°08'2 0.4
2016-Aug-22 04:08N 38°03' W 122°11'5 8.0
2016-Aug-22 03:28N 38°03' W 122°17'8 8.4
2016-Aug-22 02:32N 37°59' W 122°25'4 3.6
2016-Aug-22 01:33N 37°55' W 122°25'0 0.2
2016-Aug-22 00:33N 37°56' W 122°25'0 0.0
2016-Aug-21 23:33N 37°56' W 122°25'0 0.0
2016-Aug-21 22:33N 37°56' W 122°25'0 0.0
2016-Aug-21 21:32N 37°56' W 122°25'0 0.0
2016-Aug-21 20:32N 37°56' W 122°25'0 0.0
2016-Aug-21 19:33N 37°56' W 122°25'0 0.0
2016-Aug-21 18:33N 37°56' W 122°25'7 6.6
2016-Aug-21 17:33N 38°02' W 122°22'11 9.9
2016-Aug-21 16:29N 38°02' W 122°09'2 1.2
2016-Aug-21 15:15N 38°03' W 122°10'6 7.3
2016-Aug-21 14:27N 38°03' W 122°18'7 8.1
2016-Aug-21 13:33N 37°59' W 122°25'5 4.8
2016-Aug-21 12:33N 37°55' W 122°22'1 0.5
2016-Aug-21 11:33N 37°55' W 122°22'3 3.0
2016-Aug-21 10:33N 37°53' W 122°25'2 2.2
2016-Aug-21 09:33N 37°56' W 122°25'0 0.0
2016-Aug-21 08:34N 37°56' W 122°25'0 0.0
2016-Aug-21 07:33N 37°56' W 122°25'0 0.0
2016-Aug-21 06:33N 37°56' W 122°25'0 0.0
2016-Aug-21 05:33N 37°56' W 122°25'0 0.0
2016-Aug-21 04:33N 37°56' W 122°25'9 8.8
2016-Aug-21 03:33N 38°03' W 122°19'9 0.6
2016-Aug-20 12:30N 38°02' W 122°07'1 0.2
2016-Aug-20 06:22N 38°02' W 122°09'8 9.4
2016-Aug-20 05:32N 38°03' W 122°19'9 9.5
2016-Aug-20 04:33N 37°55' W 122°25'7 7.2
2016-Aug-20 03:33N 37°48' W 122°24'0 0.0
2016-Aug-20 02:33N 37°48' W 122°24'0 0.0
2016-Aug-20 01:34N 37°48' W 122°24'0 0.0
2016-Aug-20 00:34N 37°48' W 122°24'3 2.6
2016-Aug-19 23:33N 37°48' W 122°21'2 1.9
2016-Aug-19 22:33N 37°48' W 122°18'3 3.1
2016-Aug-19 21:33N 37°48' W 122°22'1 1.5
2016-Aug-19 20:33N 37°48' W 122°24'0 0.0
2016-Aug-19 19:33N 37°48' W 122°24'0 0.0
2016-Aug-19 18:33N 37°48' W 122°24'3 3.5
2016-Aug-19 17:33N 37°52' W 122°24'4 3.6
2016-Aug-19 16:33N 37°55' W 122°25'2 2.2
2016-Aug-19 15:34N 37°55' W 122°22'1 0.5
2016-Aug-19 14:33N 37°54' W 122°22'2 2.5
2016-Aug-19 13:33N 37°56' W 122°25'  
Track history (hours):
 
Tides and Currents Weather Stations Pressure Air Temp Water Temp Dewpoint Dewpoint Depression Visibility Wind Speed Wind Dir Waves Ship Positions

Delta Billie

Owner: Baydelta Maritime, San Francicso, CA. More information available from US FCC via Universal Licensing System and Coast Guard Vessel Documentation Center.

Last reported at 2016-Aug-29 12:33 UTC. Time now 2016-Aug-29 13:03 UTC.
Position N 37°48' W 122°22'.

Length 30 m; draft 5.5 m.

Type: Towing. MMSI: 367401030.

Date/timePositionNaut miles runAvg speedWind from/ knotsBaromVisibWave heightAir tempDewpointWater temp
2016-Aug-29 12:33N 37°48' W 122°22'2 1.6
2016-Aug-29 11:33N 37°49' W 122°20'2 2.0
2016-Aug-29 10:33N 37°48' W 122°22'2 1.5
2016-Aug-29 09:33N 37°48' W 122°24'0 0.0
2016-Aug-29 08:33N 37°48' W 122°24'0 0.0
2016-Aug-29 07:33N 37°48' W 122°24'0 0.0
2016-Aug-29 06:33N 37°48' W 122°24'0 0.0
2016-Aug-29 05:33N 37°48' W 122°24'0 0.0
2016-Aug-29 04:33N 37°48' W 122°24'0 0.0
2016-Aug-29 03:33N 37°48' W 122°24'0 0.0
2016-Aug-29 02:33N 37°48' W 122°24'2 2.3
2016-Aug-29 01:33N 37°50' W 122°24'5 4.6
2016-Aug-29 00:33N 37°55' W 122°22'2 1.6
2016-Aug-28 23:33N 37°54' W 122°24'3 2.9
2016-Aug-28 22:33N 37°57' W 122°26'11 9.9
2016-Aug-28 21:27N 38°04' W 122°15'2 0.1
2016-Aug-27 17:18N 38°04' W 122°13'911.1
2016-Aug-27 16:31N 38°01' W 122°23'1010.5
2016-Aug-27 15:33N 37°51' W 122°27'4 3.5
2016-Aug-27 14:33N 37°49' W 122°30'7 7.3
2016-Aug-27 13:34N 37°47' W 122°21'1 0.8
2016-Aug-27 12:33N 37°47' W 122°22'2 1.8
2016-Aug-27 11:33N 37°48' W 122°24'0 0.0
2016-Aug-27 10:33N 37°48' W 122°24'0 0.0
2016-Aug-27 09:33N 37°48' W 122°24'0 0.0
2016-Aug-27 08:33N 37°48' W 122°24'0 0.0
2016-Aug-27 07:33N 37°48' W 122°24'0 0.0
2016-Aug-27 06:33N 37°48' W 122°24'2 1.2
2016-Aug-27 04:33N 37°47' W 122°21'10 9.5
2016-Aug-27 03:33N 37°56' W 122°27'9 8.6
2016-Aug-27 02:30N 38°03' W 122°20'7 0.6
2016-Aug-26 15:31N 38°03' W 122°12'3 1.8
2016-Aug-26 14:09N 38°03' W 122°15'0 0.0
2016-Aug-26 13:28N 38°03' W 122°15'0 0.2
2016-Aug-26 12:28N 38°04' W 122°14'5 1.7
2016-Aug-26 09:32N 38°02' W 122°08'2 0.4
2016-Aug-26 04:21N 38°03' W 122°06'2 0.2
2016-Aug-25 18:28N 38°02' W 122°08'1 1.3
2016-Aug-25 17:28N 38°02' W 122°09'1 0.5
2016-Aug-25 15:23N 38°02' W 122°08'0 0.0
2016-Aug-25 14:23N 38°02' W 122°08'2 2.1
2016-Aug-25 13:34N 38°03' W 122°06'3 1.3
2016-Aug-25 11:33N 38°02' W 122°09'1 0.2
2016-Aug-25 07:28N 38°02' W 122°08'2 0.4
2016-Aug-25 03:12N 38°03' W 122°10'710.6
2016-Aug-25 02:33N 38°03' W 122°19'9 8.9
2016-Aug-25 01:33N 37°56' W 122°26'0 0.4
2016-Aug-25 00:33N 37°55' W 122°25'8 8.1
2016-Aug-24 23:33N 37°49' W 122°19'3 3.1
2016-Aug-24 22:33N 37°46' W 122°21'5 5.4
2016-Aug-24 21:33N 37°49' W 122°26'2 2.4
2016-Aug-24 20:33N 37°49' W 122°29'4 4.1
2016-Aug-24 19:33N 37°48' W 122°24'0 0.0
2016-Aug-24 18:34N 37°48' W 122°24'0 0.0
2016-Aug-24 17:33N 37°48' W 122°24'0 0.0
2016-Aug-24 16:33N 37°48' W 122°24'0 0.0
2016-Aug-24 15:33N 37°48' W 122°24'0 0.0
2016-Aug-24 14:33N 37°48' W 122°24'3 3.2
2016-Aug-24 13:33N 37°51' W 122°24'4 4.3
2016-Aug-24 12:33N 37°56' W 122°25'2 2.3
2016-Aug-24 11:33N 37°53' W 122°25'7 7.5
2016-Aug-24 10:33N 38°01' W 122°24'11 9.0
2016-Aug-24 09:22N 38°03' W 122°10'2 0.3
2016-Aug-24 03:33N 38°02' W 122°08'8 1.0
2016-Aug-23 19:33N 38°03' W 122°19'9 9.0
2016-Aug-23 18:33N 37°56' W 122°26'3 3.5
2016-Aug-23 17:33N 37°55' W 122°22'0 0.1
2016-Aug-23 16:33N 37°55' W 122°22'0 0.0
2016-Aug-23 15:33N 37°55' W 122°22'0 0.0
2016-Aug-23 14:33N 37°55' W 122°22'0 0.0
2016-Aug-23 13:33N 37°55' W 122°22'0 0.0
2016-Aug-23 12:33N 37°55' W 122°22'0 0.0
2016-Aug-23 11:33N 37°55' W 122°22'8 7.9
2016-Aug-23 10:34N 37°49' W 122°29'1 0.8
2016-Aug-23 09:33N 37°49' W 122°28'6 5.8
2016-Aug-23 08:33N 37°47' W 122°21'2 2.3
2016-Aug-23 07:34N 37°48' W 122°24'4 4.0
2016-Aug-23 06:33N 37°49' W 122°29'0 0.4
2016-Aug-23 05:33N 37°49' W 122°29'6 6.2
2016-Aug-23 04:33N 37°55' W 122°25'7 7.5
2016-Aug-23 03:33N 38°02' W 122°22'9 2.9
2016-Aug-23 00:32N 38°03' W 122°11'3 1.7
2016-Aug-22 22:33N 38°03' W 122°15'0 0.0
2016-Aug-22 21:26N 38°03' W 122°15'3 3.5
2016-Aug-22 20:32N 38°03' W 122°19'9 9.0
2016-Aug-22 19:33N 37°56' W 122°26'1 0.9
2016-Aug-22 18:33N 37°55' W 122°25'3 3.1
2016-Aug-22 17:33N 37°52' W 122°25'4 4.5
2016-Aug-22 16:33N 37°57' W 122°26'9 8.8
2016-Aug-22 15:33N 38°03' W 122°18'8 2.6
2016-Aug-22 12:33N 38°02' W 122°08'0 0.0
2016-Aug-22 11:31N 38°02' W 122°08'0 0.0
2016-Aug-22 10:27N 38°02' W 122°08'0 0.2
2016-Aug-22 09:10N 38°02' W 122°08'2 0.4
2016-Aug-22 04:08N 38°03' W 122°11'5 8.0
2016-Aug-22 03:28N 38°03' W 122°17'8 8.4
2016-Aug-22 02:32N 37°59' W 122°25'4 3.6
2016-Aug-22 01:33N 37°55' W 122°25'0 0.2
2016-Aug-22 00:33N 37°56' W 122°25'0 0.0
2016-Aug-21 23:33N 37°56' W 122°25'0 0.0
2016-Aug-21 22:33N 37°56' W 122°25'0 0.0
2016-Aug-21 21:32N 37°56' W 122°25'0 0.0
2016-Aug-21 20:32N 37°56' W 122°25'0 0.0
2016-Aug-21 19:33N 37°56' W 122°25'0 0.0
2016-Aug-21 18:33N 37°56' W 122°25'7 6.6
2016-Aug-21 17:33N 38°02' W 122°22'11 9.9
2016-Aug-21 16:29N 38°02' W 122°09'2 1.2
2016-Aug-21 15:15N 38°03' W 122°10'6 7.3
2016-Aug-21 14:27N 38°03' W 122°18'7 8.1
2016-Aug-21 13:33N 37°59' W 122°25'5 4.8
2016-Aug-21 12:33N 37°55' W 122°22'1 0.5
2016-Aug-21 11:33N 37°55' W 122°22'3 3.0
2016-Aug-21 10:33N 37°53' W 122°25'2 2.2
2016-Aug-21 09:33N 37°56' W 122°25'0 0.0
2016-Aug-21 08:34N 37°56' W 122°25'0 0.0
2016-Aug-21 07:33N 37°56' W 122°25'0 0.0
2016-Aug-21 06:33N 37°56' W 122°25'0 0.0
2016-Aug-21 05:33N 37°56' W 122°25'0 0.0
2016-Aug-21 04:33N 37°56' W 122°25'9 8.8
2016-Aug-21 03:33N 38°03' W 122°19'9 0.6
2016-Aug-20 12:30N 38°02' W 122°07'1 0.2
2016-Aug-20 06:22N 38°02' W 122°09'8 9.4
2016-Aug-20 05:32N 38°03' W 122°19'9 9.5
2016-Aug-20 04:33N 37°55' W 122°25'7 7.2
2016-Aug-20 03:33N 37°48' W 122°24'0 0.0
2016-Aug-20 02:33N 37°48' W 122°24'0 0.0
2016-Aug-20 01:34N 37°48' W 122°24'0 0.0
2016-Aug-20 00:34N 37°48' W 122°24'3 2.6
2016-Aug-19 23:33N 37°48' W 122°21'2 1.9
2016-Aug-19 22:33N 37°48' W 122°18'3 3.1
2016-Aug-19 21:33N 37°48' W 122°22'1 1.5
2016-Aug-19 20:33N 37°48' W 122°24'0 0.0
2016-Aug-19 19:33N 37°48' W 122°24'0 0.0
2016-Aug-19 18:33N 37°48' W 122°24'3 3.5
2016-Aug-19 17:33N 37°52' W 122°24'4 3.6
2016-Aug-19 16:33N 37°55' W 122°25'2 2.2
2016-Aug-19 15:34N 37°55' W 122°22'1 0.5
2016-Aug-19 14:33N 37°54' W 122°22'2 2.5
2016-Aug-19 13:33N 37°56' W 122°25'  

Dump ship's entire track history